Terminal Aerodrome Forecast
Issued by NWS

Current Version | Previous Version | Text Only | Print | Product List | Glossary On
Versions: 1 2 3 4 5 6 7 8 9 10 11 12 13 14 15 16 17 18 19 20 21
621
FTUS43 KLSX 131725
TAFUIN
TAF
KUIN 131725Z 1318/1418 VRB03KT P6SM SCT250
     FM131900 VRB03KT P6SM BKN100
     FM140300 12007KT P6SM OVC060
     FM140700 13010KT 4SM -SN SCT015 OVC035
     FM141000 13013KT 2SM -SN SCT015 OVC030
     FM141400 13015KT 1SM -SN SCT009 OVC015=

USA.gov is the U.S. government's official web portal to all federal, state and local government web resources and services.